Time;durP1;ratioP1;P1;durP2;ratioP2;P2;SDS_P1;SDS_P2;PMS_P1;PMS_P2;Temp;Humidity;BMP_temperature;BMP_pressure;BME280_temperature;BME280_humidity;BME280_pressure;Samples;Min_cycle;Max_cycle;Signal;HPM_P1;HPM_P2
2022/10/25 00:00:59;;;;;;;30.67;15.27;;;16.50;99.90;;;;;;4963995;28;20038;-49
2022/10/25 00:03:25;;;;;;;31.13;14.38;;;16.50;99.90;;;;;;5030212;28;20396;-48
2022/10/25 00:05:50;;;;;;;24.83;14.20;;;16.50;99.90;;;;;;5015289;28;20113;-49
2022/10/25 00:08:16;;;;;;;32.22;17.58;;;16.50;99.90;;;;;;5015076;28;20034;-47
2022/10/25 00:10:42;;;;;;;31.77;17.52;;;16.50;99.90;;;;;;5014735;28;20026;-45
2022/10/25 00:13:07;;;;;;;33.10;16.58;;;16.60;99.90;;;;;;4996348;28;20038;-49
2022/10/25 00:15:33;;;;;;;34.25;16.30;;;16.60;99.90;;;;;;5029046;28;20041;-49
2022/10/25 00:17:59;;;;;;;37.63;17.38;;;16.60;99.90;;;;;;5015010;28;20045;-49
2022/10/25 00:20:25;;;;;;;25.50;15.18;;;16.60;99.90;;;;;;5014848;28;20036;-49
2022/10/25 00:22:50;;;;;;;28.67;14.93;;;16.60;99.90;;;;;;5014864;28;20037;-47
2022/10/25 00:25:16;;;;;;;28.88;16.33;;;16.60;99.90;;;;;;5014918;28;20037;-49
2022/10/25 00:27:42;;;;;;;29.02;15.68;;;16.40;99.90;;;;;;5060978;28;20503;-48
2022/10/25 00:30:08;;;;;;;32.10;16.27;;;16.20;99.90;;;;;;5014413;28;20112;-46
2022/10/25 00:32:34;;;;;;;35.78;16.65;;;16.10;99.90;;;;;;5014773;28;20377;-48
2022/10/25 00:35:02;;;;;;;26.48;17.30;;;16.00;99.90;;;;;;5014763;28;20045;-49
2022/10/25 00:37:29;;;;;;;37.17;16.02;;;;;;;;;;5028631;28;20183;-51
2022/10/25 00:39:54;;;;;;;30.08;15.07;;;15.40;99.90;;;;;;5027579;28;20080;-50
2022/10/25 00:42:23;;;;;;;35.00;14.73;;;15.50;99.90;;;;;;5014768;28;20099;-49
2022/10/25 00:44:57;;;;;;;26.33;14.15;;;15.40;99.90;;;;;;5015185;28;20060;-47
2022/10/25 00:47:32;;;;;;;31.88;15.57;;;15.20;99.90;;;;;;5014495;28;20172;-49
2022/10/25 00:50:02;;;;;;;29.55;14.50;;;15.10;99.90;;;;;;5017637;28;20025;-47
2022/10/25 00:52:32;;;;;;;26.52;13.60;;;15.00;99.90;;;;;;5013941;28;20095;-49
2022/10/25 00:54:59;;;;;;;23.77;15.25;;;15.10;99.90;;;;;;5013547;28;20514;-47
2022/10/25 00:57:33;;;;;;;38.33;15.25;;;15.20;99.90;;;;;;5014912;28;20377;-47
2022/10/25 01:00:00;;;;;;;25.80;14.40;;;15.30;99.90;;;;;;5013805;28;20030;-47
2022/10/25 01:02:26;;;;;;;23.60;13.82;;;15.40;99.90;;;;;;5014679;28;20125;-50
2022/10/25 01:04:53;;;;;;;29.92;13.57;;;15.40;99.90;;;;;;5012041;28;20037;-47
2022/10/25 01:07:18;;;;;;;27.67;12.57;;;15.40;99.90;;;;;;5014066;28;20022;-47
2022/10/25 01:09:44;;;;;;;26.10;12.65;;;15.50;99.90;;;;;;5013718;28;20377;-48
2022/10/25 01:12:10;;;;;;;20.98;10.77;;;15.60;99.90;;;;;;5013874;28;20030;-47
2022/10/25 01:14:40;;;;;;;20.48;10.57;;;15.60;99.90;;;;;;5014238;28;20018;-47
2022/10/25 01:17:40;;;;;;;21.25;10.95;;;15.50;99.90;;;;;;5011611;28;20030;-49
2022/10/25 01:20:36;;;;;;;24.33;11.18;;;15.50;99.90;;;;;;5019302;28;20043;-48
2022/10/25 01:23:25;;;;;;;20.25;10.05;;;15.60;99.90;;;;;;5041194;28;20072;-50
2022/10/25 01:26:13;;;;;;;24.35;11.57;;;15.50;99.90;;;;;;5012382;28;20030;-49
2022/10/25 01:28:44;;;;;;;20.55;10.75;;;15.50;99.90;;;;;;5012299;28;20034;-48
2022/10/25 01:31:13;;;;;;;20.27;9.77;;;;;;;;;;5013301;28;20049;-49
2022/10/25 01:33:43;;;;;;;21.35;10.40;;;15.70;99.90;;;;;;5027839;28;20489;-47
2022/10/25 01:36:23;;;;;;;26.95;11.00;;;15.70;99.90;;;;;;5013734;28;20050;-47
2022/10/25 01:39:11;;;;;;;25.77;12.10;;;15.80;99.90;;;;;;5013828;28;20034;-51
2022/10/25 01:41:58;;;;;;;23.73;11.88;;;15.60;99.90;;;;;;5012561;28;20044;-51
2022/10/25 01:44:45;;;;;;;24.63;11.48;;;15.70;99.90;;;;;;5013026;28;20367;-50
2022/10/25 01:47:22;;;;;;;25.17;11.90;;;15.80;99.90;;;;;;5012977;28;20026;-50
2022/10/25 01:49:59;;;;;;;23.73;11.82;;;15.70;99.90;;;;;;5012985;28;20022;-48
2022/10/25 01:52:25;;;;;;;27.55;12.52;;;15.80;99.90;;;;;;5012652;28;20100;-49
2022/10/25 01:54:51;;;;;;;26.13;12.63;;;15.60;99.90;;;;;;5027597;28;20049;-49
2022/10/25 01:57:23;;;;;;;29.13;12.68;;;15.70;99.90;;;;;;5013250;28;20076;-49
2022/10/25 01:59:48;;;;;;;24.25;12.38;;;15.80;99.90;;;;;;5044152;28;20088;-50
2022/10/25 02:02:50;;;;;;;28.45;13.52;;;15.90;99.90;;;;;;5012659;28;20497;-47
2022/10/25 02:05:26;;;;;;;32.03;13.32;;;15.90;99.90;;;;;;4985401;28;20038;-49
2022/10/25 02:08:12;;;;;;;28.33;15.60;;;15.90;99.90;;;;;;4988021;28;20034;-46
2022/10/25 02:10:44;;;;;;;24.23;13.55;;;16.00;99.90;;;;;;4990637;28;20038;-47
2022/10/25 02:13:36;;;;;;;27.27;14.20;;;16.00;99.90;;;;;;4985178;28;20116;-48
2022/10/25 02:16:08;;;;;;;26.40;15.00;;;16.00;99.90;;;;;;4983483;28;20062;-47
2022/10/25 02:18:42;;;;;;;28.48;14.85;;;16.10;99.90;;;;;;4986612;28;20081;-50
2022/10/25 02:21:11;;;;;;;27.85;14.35;;;16.10;99.90;;;;;;4978375;28;20042;-51
2022/10/25 02:23:38;;;;;;;28.52;15.57;;;16.20;99.90;;;;;;4982907;28;20062;-49
2022/10/25 02:26:07;;;;;;;27.83;15.75;;;16.20;99.90;;;;;;4988813;28;20465;-47
2022/10/25 02:28:37;;;;;;;30.92;16.40;;;16.20;99.90;;;;;;4974503;28;20188;-47
2022/10/25 02:31:03;;;;;;;32.22;17.17;;;16.30;99.90;;;;;;4986319;28;20124;-48
2022/10/25 02:33:29;;;;;;;35.65;16.98;;;16.40;99.90;;;;;;4985835;28;20035;-50
2022/10/25 02:36:20;;;;;;;28.02;15.32;;;16.40;99.90;;;;;;4985424;28;20201;-48
2022/10/25 02:38:48;;;;;;;39.20;16.67;;;16.50;99.90;;;;;;4987484;28;20062;-47
2022/10/25 02:41:13;;;;;;;36.05;15.70;;;16.60;99.90;;;;;;4991883;28;20144;-50
2022/10/25 02:43:41;;;;;;;25.58;15.20;;;16.60;99.90;;;;;;5012898;28;20525;-48
2022/10/25 02:46:10;;;;;;;25.77;16.17;;;16.60;99.90;;;;;;5009063;28;20407;-49
2022/10/25 02:48:36;;;;;;;30.33;15.95;;;16.60;99.90;;;;;;5012189;28;20480;-50
2022/10/25 02:51:03;;;;;;;35.67;16.98;;;16.70;99.90;;;;;;5011999;28;20129;-48
2022/10/25 02:53:29;;;;;;;27.20;16.52;;;16.70;99.90;;;;;;5012228;28;20049;-49
2022/10/25 02:56:24;;;;;;;29.02;15.80;;;16.80;99.90;;;;;;5011233;28;20394;-47
2022/10/25 02:58:54;;;;;;;30.38;15.55;;;16.80;99.90;;;;;;4986668;28;20034;-47
2022/10/25 03:01:20;;;;;;;26.75;14.90;;;16.80;99.90;;;;;;5012103;28;20362;-49
2022/10/25 03:03:46;;;;;;;34.05;15.13;;;16.80;99.90;;;;;;5012233;28;20041;-48
2022/10/25 03:06:12;;;;;;;23.48;13.60;;;16.90;99.90;;;;;;5009976;28;20145;-49
2022/10/25 03:08:39;;;;;;;30.38;14.20;;;17.00;99.90;;;;;;5012193;28;20108;-46
2022/10/25 03:11:07;;;;;;;27.33;14.13;;;17.00;99.90;;;;;;5010704;28;20026;-48
2022/10/25 03:13:33;;;;;;;32.58;15.15;;;17.10;99.90;;;;;;5010887;28;20382;-48
2022/10/25 03:15:59;;;;;;;30.48;14.20;;;17.10;99.90;;;;;;5010985;28;20022;-47
2022/10/25 03:18:25;;;;;;;29.77;13.57;;;17.20;99.90;;;;;;5009868;28;20029;-47
2022/10/25 03:20:54;;;;;;;26.05;13.75;;;17.10;99.90;;;;;;5012431;28;20080;-47
2022/10/25 03:23:20;;;;;;;33.22;13.60;;;17.20;99.90;;;;;;5011738;28;20045;-47
2022/10/25 03:25:46;;;;;;;21.67;13.30;;;17.20;99.90;;;;;;5042870;28;20030;-47
2022/10/25 03:28:11;;;;;;;33.47;13.60;;;17.10;99.90;;;;;;5012116;28;20033;-48
2022/10/25 03:30:37;;;;;;;28.17;13.45;;;17.20;99.90;;;;;;5012621;28;20026;-48
2022/10/25 03:33:03;;;;;;;22.65;12.63;;;17.20;99.90;;;;;;5012138;28;20052;-48
2022/10/25 03:35:28;;;;;;;24.70;12.23;;;17.00;99.90;;;;;;5012258;28;20069;-47
2022/10/25 03:37:54;;;;;;;22.00;13.05;;;16.90;99.90;;;;;;5011712;28;20030;-50
2022/10/25 03:40:20;;;;;;;27.35;13.48;;;16.80;99.90;;;;;;5023172;28;20160;-47
2022/10/25 03:42:53;;;;;;;25.98;12.80;;;16.70;99.90;;;;;;5012000;28;20084;-49
2022/10/25 03:45:19;;;;;;;27.65;13.27;;;16.70;99.90;;;;;;5007818;28;20441;-48
2022/10/25 03:47:45;;;;;;;23.48;14.35;;;16.70;99.90;;;;;;5011742;28;20113;-47
2022/10/25 03:50:11;;;;;;;27.90;12.65;;;16.70;99.90;;;;;;5014384;28;20025;-47
2022/10/25 03:52:37;;;;;;;24.10;13.02;;;16.70;99.90;;;;;;5013207;28;20398;-47
2022/10/25 03:55:03;;;;;;;26.80;13.77;;;16.70;99.90;;;;;;5013476;28;20073;-48
2022/10/25 03:57:29;;;;;;;27.95;13.43;;;16.70;99.90;;;;;;5012887;28;20473;-46
2022/10/25 03:59:56;;;;;;;26.38;12.40;;;16.70;99.90;;;;;;5029351;28;20120;-46
2022/10/25 04:02:22;;;;;;;28.70;13.70;;;16.60;99.90;;;;;;5015121;28;20041;-46
2022/10/25 04:04:48;;;;;;;24.83;13.35;;;16.50;99.90;;;;;;5015215;28;20417;-47
2022/10/25 04:07:14;;;;;;;23.75;13.70;;;16.50;99.90;;;;;;5014896;28;20393;-49
2022/10/25 04:09:39;;;;;;;19.40;11.98;;;16.60;99.90;;;;;;5015351;28;20034;-47
2022/10/25 04:12:05;;;;;;;22.45;13.23;;;16.50;99.90;;;;;;5012461;28;20030;-47
2022/10/25 04:14:31;;;;;;;24.13;13.70;;;16.50;99.90;;;;;;5046931;28;20124;-50
2022/10/25 04:16:56;;;;;;;29.98;12.90;;;16.60;99.90;;;;;;5013913;28;20111;-46
2022/10/25 04:19:22;;;;;;;26.23;13.75;;;16.70;99.90;;;;;;5029500;28;20497;-47
2022/10/25 04:21:48;;;;;;;24.67;13.35;;;16.70;99.90;;;;;;5030109;28;20045;-48
2022/10/25 04:24:14;;;;;;;25.13;14.02;;;16.70;99.90;;;;;;5014687;28;20401;-48
2022/10/25 04:26:39;;;;;;;21.27;12.30;;;16.60;99.90;;;;;;5012820;28;20038;-47
2022/10/25 04:29:05;;;;;;;29.25;12.95;;;16.60;99.90;;;;;;5013508;28;20027;-48
2022/10/25 04:31:32;;;;;;;28.63;13.70;;;16.50;99.90;;;;;;5016203;28;20037;-48
2022/10/25 04:33:57;;;;;;;28.65;12.60;;;16.50;99.90;;;;;;5014984;28;20080;-46
2022/10/25 04:36:23;;;;;;;29.42;13.13;;;16.40;99.90;;;;;;5016505;28;20033;-47
2022/10/25 04:38:50;;;;;;;21.98;12.20;;;16.40;99.90;;;;;;5014027;28;20521;-49
2022/10/25 04:41:17;;;;;;;22.77;12.30;;;16.50;99.90;;;;;;5007975;28;20029;-49
2022/10/25 04:43:44;;;;;;;26.20;11.85;;;16.20;99.90;;;;;;5013632;28;20034;-49
2022/10/25 04:46:13;;;;;;;28.15;12.85;;;16.20;99.90;;;;;;5014331;28;20465;-48
2022/10/25 04:48:40;;;;;;;20.85;12.40;;;16.30;99.90;;;;;;5028497;28;20030;-50
2022/10/25 04:51:07;;;;;;;24.55;12.60;;;16.30;99.90;;;;;;5024904;28;20064;-49
2022/10/25 04:53:33;;;;;;;32.10;14.27;;;16.30;99.90;;;;;;5013170;28;20101;-49
2022/10/25 04:56:11;;;;;;;26.98;13.77;;;16.40;99.90;;;;;;5027968;28;20109;-47
2022/10/25 04:58:37;;;;;;;22.55;13.07;;;16.50;99.90;;;;;;5013614;28;20030;-48
2022/10/25 05:01:05;;;;;;;28.38;14.10;;;16.60;99.90;;;;;;5008600;28;20414;-50
2022/10/25 05:03:32;;;;;;;25.75;14.10;;;16.50;99.90;;;;;;5014536;28;20036;-48
2022/10/25 05:06:14;;;;;;;23.90;13.40;;;16.60;99.90;;;;;;5042312;28;20482;-50
2022/10/25 05:08:42;;;;;;;24.83;13.98;;;16.60;99.90;;;;;;5010286;28;20057;-49
2022/10/25 05:11:09;;;;;;;24.40;13.05;;;16.60;99.90;;;;;;5007583;28;20063;-47
2022/10/25 05:13:36;;;;;;;24.25;13.40;;;16.70;99.90;;;;;;5015034;28;20034;-49
2022/10/25 05:16:03;;;;;;;30.02;13.68;;;16.70;99.90;;;;;;5010669;28;20025;-49
2022/10/25 05:18:31;;;;;;;23.33;13.77;;;16.60;99.90;;;;;;5013403;28;20022;-47
2022/10/25 05:21:00;;;;;;;22.50;13.50;;;16.60;99.90;;;;;;5017037;28;20045;-47
2022/10/25 05:23:26;;;;;;;21.35;12.18;;;16.60;99.90;;;;;;5012295;28;20089;-49
2022/10/25 05:26:15;;;;;;;26.48;13.30;;;16.60;99.90;;;;;;5013595;28;20026;-47
2022/10/25 05:28:42;;;;;;;30.20;12.93;;;16.90;99.90;;;;;;5010471;28;20117;-49
2022/10/25 05:31:17;;;;;;;23.33;13.55;;;16.40;99.90;;;;;;5013406;28;20037;-48
2022/10/25 05:33:44;;;;;;;26.60;12.93;;;16.50;99.90;;;;;;5026790;28;20402;-48
2022/10/25 05:36:11;;;;;;;24.23;13.38;;;16.60;99.90;;;;;;5011702;28;20113;-49
2022/10/25 05:38:37;;;;;;;25.15;12.82;;;16.70;99.90;;;;;;5013307;28;20036;-47
2022/10/25 05:41:03;;;;;;;33.03;15.32;;;16.70;99.90;;;;;;5013942;28;20034;-47
2022/10/25 05:43:29;;;;;;;27.65;13.15;;;16.80;99.90;;;;;;5010213;28;20145;-47
2022/10/25 05:46:21;;;;;;;24.55;13.23;;;16.80;99.90;;;;;;5044662;28;20492;-49
2022/10/25 05:48:49;;;;;;;31.15;12.63;;;17.30;99.90;;;;;;5008046;28;20113;-49
2022/10/25 05:51:26;;;;;;;29.27;13.65;;;17.80;99.90;;;;;;5011037;28;20457;-46
2022/10/25 05:53:54;;;;;;;30.48;13.45;;;;;;;;;;5012669;28;20037;-47
2022/10/25 05:56:22;;;;;;;26.48;12.45;;;19.00;99.90;;;;;;5012221;28;20056;-48
2022/10/25 05:58:48;;;;;;;26.55;12.30;;;19.70;99.90;;;;;;5006862;28;20382;-46
2022/10/25 06:01:17;;;;;;;23.17;12.98;;;20.20;99.90;;;;;;5011904;28;20045;-46
2022/10/25 06:03:45;;;;;;;25.55;13.07;;;20.70;99.90;;;;;;5011341;28;20029;-48
2022/10/25 06:06:12;;;;;;;27.63;12.40;;;;;;;;;;4992211;28;20397;-48
2022/10/25 06:08:38;;;;;;;34.22;12.73;;;;;;;;;;5012597;28;20117;-53
2022/10/25 06:11:05;;;;;;;22.08;12.40;;;;;;;;;;5011197;28;20064;-49
2022/10/25 06:13:31;;;;;;;25.83;13.05;;;;;;;;;;5020931;28;20030;-49
2022/10/25 06:15:57;;;;;;;25.05;10.82;;;23.10;99.90;;;;;;5012154;28;20065;-48
2022/10/25 06:18:23;;;;;;;28.65;12.02;;;23.30;99.90;;;;;;5027187;28;20069;-48
2022/10/25 06:20:49;;;;;;;21.88;10.85;;;;;;;;;;5012579;28;21436;-48
2022/10/25 06:23:15;;;;;;;29.48;11.57;;;24.40;99.90;;;;;;5012544;28;20037;-49
2022/10/25 06:25:41;;;;;;;21.30;10.20;;;25.00;99.90;;;;;;5013264;28;20160;-48
2022/10/25 06:28:08;;;;;;;20.52;11.27;;;25.60;99.90;;;;;;5012671;28;20437;-48
2022/10/25 06:30:34;;;;;;;23.80;10.23;;;;;;;;;;5012414;28;20470;-48
2022/10/25 06:33:00;;;;;;;22.23;9.38;;;26.60;99.90;;;;;;5013048;28;20033;-48
2022/10/25 06:35:28;;;;;;;20.65;10.52;;;;;;;;;;5012350;28;20029;-47
2022/10/25 06:37:57;;;;;;;23.33;9.70;;;;;;;;;;5012420;28;20527;-48
2022/10/25 06:40:23;;;;;;;18.85;10.13;;;27.70;99.90;;;;;;5005947;28;20402;-48
2022/10/25 06:42:54;;;;;;;24.38;10.30;;;27.40;99.90;;;;;;5012123;28;20037;-48
2022/10/25 06:45:19;;;;;;;27.52;11.07;;;26.30;99.90;;;;;;5012375;28;20045;-49
2022/10/25 06:47:46;;;;;;;25.88;10.15;;;;;;;;;;5001733;28;20042;-49
2022/10/25 06:50:11;;;;;;;28.80;11.35;;;24.30;99.90;;;;;;5026823;28;20041;-48
2022/10/25 06:52:37;;;;;;;24.08;11.48;;;24.00;99.90;;;;;;5026951;28;20408;-48
2022/10/25 06:55:03;;;;;;;29.02;11.00;;;24.10;99.90;;;;;;5012357;28;20040;-48
2022/10/25 06:57:29;;;;;;;19.40;10.00;;;23.90;99.90;;;;;;5012095;28;20041;-49
2022/10/25 06:59:54;;;;;;;21.17;10.60;;;24.50;99.90;;;;;;5025999;28;20037;-48
2022/10/25 07:02:20;;;;;;;18.77;9.95;;;25.20;99.90;;;;;;5026104;28;20088;-49
2022/10/25 07:04:46;;;;;;;20.98;9.45;;;24.40;99.90;;;;;;5012264;28;20037;-48
2022/10/25 07:07:13;;;;;;;22.55;11.98;;;23.70;99.90;;;;;;5012219;28;20057;-48
2022/10/25 07:09:39;;;;;;;24.63;11.30;;;23.40;99.90;;;;;;5010496;28;20034;-49
2022/10/25 07:12:06;;;;;;;25.52;10.63;;;24.40;99.90;;;;;;5011989;28;20084;-48
2022/10/25 07:14:31;;;;;;;22.33;10.73;;;25.90;99.90;;;;;;5027102;28;20649;-48
2022/10/25 07:16:57;;;;;;;19.40;10.85;;;;;;;;;;5011293;28;20034;-48
2022/10/25 07:19:24;;;;;;;22.98;11.65;;;;;;;;;;5009971;28;20061;-49
2022/10/25 07:21:50;;;;;;;20.58;10.30;;;;;;;;;;5024262;28;20050;-48
2022/10/25 07:24:16;;;;;;;19.42;10.43;;;30.50;99.60;;;;;;5011088;28;20034;-50
2022/10/25 07:26:43;;;;;;;19.17;10.48;;;;;;;;;;5024790;28;20038;-46
2022/10/25 07:29:09;;;;;;;23.40;10.27;;;;;;;;;;5014480;28;20030;-50
2022/10/25 07:31:37;;;;;;;19.85;10.98;;;33.10;95.40;;;;;;5013490;28;20060;-49
2022/10/25 07:34:05;;;;;;;20.52;10.70;;;32.80;94.10;;;;;;5010730;28;20026;-48
2022/10/25 07:36:31;;;;;;;18.90;10.52;;;;;;;;;;5012378;28;20136;-49
2022/10/25 07:38:57;;;;;;;15.25;9.38;;;;;;;;;;5027692;28;20049;-48
2022/10/25 07:41:24;;;;;;;21.42;10.68;;;;;;;;;;5012472;28;20049;-47
2022/10/25 07:43:49;;;;;;;18.58;9.88;;;32.20;93.90;;;;;;5015781;28;20140;-47
2022/10/25 07:46:15;;;;;;;22.48;11.73;;;32.30;92.90;;;;;;5028183;28;20501;-48
2022/10/25 07:48:41;;;;;;;18.52;11.65;;;32.30;92.50;;;;;;5028107;28;20377;-50
2022/10/25 07:51:10;;;;;;;20.15;12.13;;;31.60;92.30;;;;;;4995043;28;20037;-47
2022/10/25 07:53:36;;;;;;;16.02;9.68;;;29.90;92.80;;;;;;5009330;28;20381;-48
2022/10/25 07:56:03;;;;;;;19.80;11.30;;;;;;;;;;5013710;28;20034;-47
2022/10/25 07:58:29;;;;;;;22.42;9.70;;;27.30;94.90;;;;;;5014524;28;20034;-47
2022/10/25 08:01:02;;;;;;;20.63;10.40;;;26.00;96.20;;;;;;5012376;28;20428;-48
2022/10/25 08:03:29;;;;;;;16.65;10.85;;;25.40;97.10;;;;;;5017395;28;20382;-48
2022/10/25 08:05:54;;;;;;;23.85;11.13;;;25.10;97.40;;;;;;5015672;28;20032;-48
2022/10/25 08:08:22;;;;;;;18.17;10.63;;;24.60;98.90;;;;;;5015140;28;20112;-49
2022/10/25 08:10:48;;;;;;;25.08;11.32;;;24.30;99.70;;;;;;5013419;28;20034;-49
2022/10/25 08:13:14;;;;;;;20.52;9.88;;;24.20;99.90;;;;;;5012825;28;20061;-50
2022/10/25 08:15:39;;;;;;;22.60;10.45;;;24.30;99.90;;;;;;5014899;28;20076;-48
2022/10/25 08:18:06;;;;;;;18.05;9.80;;;24.20;99.90;;;;;;5020128;28;20482;-47
2022/10/25 08:20:32;;;;;;;19.33;9.00;;;24.00;99.90;;;;;;5015075;28;20025;-49
2022/10/25 08:23:00;;;;;;;15.43;9.90;;;24.10;99.90;;;;;;5014236;28;20422;-52
2022/10/25 08:25:27;;;;;;;14.55;8.80;;;23.70;99.90;;;;;;5015110;28;20100;-51
2022/10/25 08:27:53;;;;;;;19.88;9.77;;;23.60;99.90;;;;;;5010846;28;20060;-51
2022/10/25 08:30:19;;;;;;;20.77;9.55;;;23.90;99.90;;;;;;5009351;28;20466;-49
2022/10/25 08:32:45;;;;;;;18.85;9.40;;;24.10;99.90;;;;;;5014491;28;20377;-51
2022/10/25 08:35:11;;;;;;;18.92;9.48;;;23.70;99.90;;;;;;5014668;28;20053;-52
2022/10/25 08:37:37;;;;;;;21.85;9.07;;;23.40;99.90;;;;;;5044109;28;20096;-50
2022/10/25 08:40:03;;;;;;;17.30;9.80;;;23.30;99.90;;;;;;5013588;28;20026;-48
2022/10/25 08:42:57;;;;;;;23.88;10.57;;;23.10;99.90;;;;;;5045362;28;20130;-50
2022/10/25 08:45:40;;;;;;;16.48;9.38;;;22.70;99.90;;;;;;5011161;28;20116;-50
2022/10/25 08:48:15;;;;;;;14.65;8.10;;;22.80;99.90;;;;;;5012777;28;20029;-50
2022/10/25 08:50:45;;;;;;;18.52;10.40;;;22.70;99.90;;;;;;5012062;28;20100;-52
2022/10/25 08:53:26;;;;;;;15.63;8.77;;;22.80;99.90;;;;;;5009737;28;20411;-49
2022/10/25 08:55:53;;;;;;;16.98;8.82;;;22.60;99.90;;;;;;5013499;28;20490;-47
2022/10/25 08:58:36;;;;;;;19.13;8.93;;;22.70;99.90;;;;;;5013820;28;20029;-52
2022/10/25 09:01:13;;;;;;;20.02;8.30;;;23.30;99.90;;;;;;5011150;28;20029;-49
2022/10/25 09:03:39;;;;;;;13.18;8.50;;;23.50;99.90;;;;;;5013868;28;20094;-50
2022/10/25 09:06:16;;;;;;;17.00;8.32;;;23.80;99.90;;;;;;5013891;28;20044;-49
2022/10/25 09:09:06;;;;;;;17.83;7.95;;;24.10;99.90;;;;;;5013202;28;20494;-51
2022/10/25 09:11:56;;;;;;;16.52;7.78;;;24.40;99.90;;;;;;5011729;28;20073;-48
2022/10/25 09:14:29;;;;;;;13.63;7.75;;;24.60;99.90;;;;;;5008665;28;20478;-52
2022/10/25 09:17:06;;;;;;;27.55;8.48;;;25.50;99.90;;;;;;5021058;28;20026;-51
2022/10/25 09:19:35;;;;;;;10.57;6.00;;;25.20;99.90;;;;;;5017534;28;20038;-51
2022/10/25 09:22:04;;;;;;;16.20;7.07;;;24.80;99.90;;;;;;5028449;28;20263;-50
2022/10/25 09:24:35;;;;;;;17.05;6.15;;;24.50;99.90;;;;;;5028564;28;20056;-51
2022/10/25 09:27:18;;;;;;;10.10;5.80;;;24.90;99.90;;;;;;5026348;28;20443;-51
2022/10/25 09:30:01;;;;;;;14.50;6.00;;;24.30;99.90;;;;;;5021886;28;20474;-51
2022/10/25 09:32:48;;;;;;;15.25;7.22;;;24.40;99.90;;;;;;5026074;28;20135;-51
2022/10/25 09:35:39;;;;;;;15.90;7.35;;;24.30;99.90;;;;;;5024215;28;20128;-49
2022/10/25 09:38:19;;;;;;;12.10;7.20;;;24.60;99.90;;;;;;5024380;28;20033;-50
2022/10/25 09:40:49;;;;;;;13.00;6.72;;;25.10;99.90;;;;;;5024742;28;20029;-50
2022/10/25 09:43:20;;;;;;;17.33;6.88;;;25.40;99.90;;;;;;5025525;28;20060;-50
2022/10/25 09:45:50;;;;;;;16.48;7.70;;;25.20;99.90;;;;;;5029092;28;20048;-49
2022/10/25 09:48:29;;;;;;;17.38;8.52;;;25.60;99.90;;;;;;5029519;28;20029;-49
2022/10/25 09:51:16;;;;;;;15.15;7.40;;;26.40;99.90;;;;;;5029943;28;20038;-50
2022/10/25 09:53:43;;;;;;;16.42;7.80;;;;;;;;;;5030767;28;20064;-50
2022/10/25 09:56:09;;;;;;;18.42;7.43;;;27.30;99.90;;;;;;5030642;28;20045;-49
2022/10/25 09:58:40;;;;;;;15.98;7.10;;;26.70;99.90;;;;;;5013469;28;20440;-50
2022/10/25 10:01:16;;;;;;;17.63;8.18;;;26.20;99.90;;;;;;5006660;28;20034;-50
2022/10/25 10:03:42;;;;;;;16.38;8.70;;;25.50;99.90;;;;;;5028156;28;20588;-50
2022/10/25 10:06:15;;;;;;;19.40;9.18;;;;;;;;;;5024834;28;20073;-50
2022/10/25 10:08:48;;;;;;;16.30;8.88;;;24.60;99.90;;;;;;5008547;28;20073;-50
2022/10/25 10:11:17;;;;;;;14.85;7.00;;;23.70;99.90;;;;;;5006213;28;20557;-50
2022/10/25 10:14:20;;;;;;;15.40;6.72;;;23.40;99.90;;;;;;5007562;28;20041;-50
2022/10/25 10:16:51;;;;;;;17.42;8.23;;;23.00;99.90;;;;;;4970141;28;20070;-50
2022/10/25 10:19:21;;;;;;;14.82;8.02;;;22.60;99.90;;;;;;4971134;28;20042;-50
2022/10/25 10:21:54;;;;;;;14.77;8.63;;;22.80;99.90;;;;;;4971114;28;20049;-50
2022/10/25 10:24:30;;;;;;;11.88;7.97;;;22.80;99.90;;;;;;4971120;28;20042;-50
2022/10/25 10:27:09;;;;;;;15.80;8.82;;;22.80;99.90;;;;;;4971234;28;20487;-50
2022/10/25 10:30:06;;;;;;;14.43;8.02;;;23.00;99.90;;;;;;4971002;28;20031;-50
2022/10/25 10:32:36;;;;;;;16.52;9.02;;;22.80;99.90;;;;;;4970270;28;20035;-50
2022/10/25 10:35:23;;;;;;;18.95;9.90;;;22.50;99.90;;;;;;4938934;28;20046;-50
2022/10/25 10:37:48;;;;;;;17.90;9.63;;;22.40;99.90;;;;;;4955453;28;20529;-49
2022/10/25 10:40:17;;;;;;;17.58;10.13;;;22.50;99.90;;;;;;4985170;28;20054;-49
2022/10/25 10:42:43;;;;;;;18.42;10.07;;;22.90;99.90;;;;;;4990361;28;20074;-49
2022/10/25 10:45:14;;;;;;;19.83;10.38;;;23.20;99.90;;;;;;4990828;28;20113;-49
2022/10/25 10:47:49;;;;;;;11.70;8.35;;;23.30;99.90;;;;;;4987801;28;20030;-50
2022/10/25 10:50:23;;;;;;;13.75;7.90;;;23.50;99.90;;;;;;4990342;28;20034;-50
2022/10/25 10:53:01;;;;;;;13.30;7.10;;;23.30;99.90;;;;;;4996019;28;20148;-50
2022/10/25 10:55:48;;;;;;;10.27;6.20;;;23.00;99.90;;;;;;5010070;28;20054;-49
2022/10/25 10:58:16;;;;;;;11.07;7.70;;;22.70;99.90;;;;;;5009470;28;20034;-50
2022/10/25 11:00:59;;;;;;;19.40;9.35;;;22.50;99.90;;;;;;5030467;28;20466;-50
2022/10/25 11:03:45;;;;;;;10.07;6.93;;;22.50;99.90;;;;;;5012171;28;20040;-50
2022/10/25 11:06:25;;;;;;;10.65;6.55;;;22.20;99.90;;;;;;5017011;28;20072;-50
2022/10/25 11:09:16;;;;;;;14.35;5.90;;;22.20;99.90;;;;;;5021257;28;20629;-50
2022/10/25 11:11:43;;;;;;;11.70;6.72;;;22.20;99.90;;;;;;5053463;28;20032;-50
2022/10/25 11:14:16;;;;;;;11.52;6.13;;;22.40;99.90;;;;;;5053687;28;20068;-50
2022/10/25 11:17:11;;;;;;;8.90;5.40;;;22.90;99.90;;;;;;5034099;28;20125;-49
2022/10/25 11:19:58;;;;;;;9.38;6.03;;;23.50;99.90;;;;;;5053390;28;20380;-50
2022/10/25 11:22:35;;;;;;;11.20;6.30;;;23.70;99.90;;;;;;5049145;28;20064;-49
2022/10/25 11:25:24;;;;;;;7.03;4.93;;;23.50;99.90;;;;;;5050295;28;20029;-52
2022/10/25 11:28:33;;;;;;;6.80;4.10;;;23.40;99.90;;;;;;5049674;28;20121;-51
2022/10/25 11:31:17;;;;;;;8.52;4.88;;;23.30;99.90;;;;;;5053275;28;20035;-48
2022/10/25 11:34:10;;;;;;;7.82;4.60;;;23.40;99.90;;;;;;5052432;28;20427;-49
2022/10/25 11:36:50;;;;;;;8.70;4.78;;;23.60;99.90;;;;;;5052851;28;20037;-49
2022/10/25 11:39:26;;;;;;;6.18;5.22;;;24.10;99.90;;;;;;5040601;28;20116;-49
2022/10/25 11:42:02;;;;;;;10.00;5.82;;;24.80;99.90;;;;;;5044360;28;20050;-49
2022/10/25 11:44:45;;;;;;;5.00;3.88;;;25.50;99.90;;;;;;5047208;28;20034;-50
2022/10/25 11:47:30;;;;;;;6.65;3.85;;;;;;;;;;5012132;28;20037;-47
2022/10/25 12:02:13;;;;;;;8.73;4.70;;;26.80;99.90;;;;;;5140482;27;20390;-50
2022/10/25 12:04:47;;;;;;;15.93;5.55;;;26.70;99.90;;;;;;5126251;28;20072;-50
2022/10/25 12:07:20;;;;;;;6.60;5.35;;;;;;;;;;5123545;27;20031;-49
2022/10/25 12:09:49;;;;;;;9.75;6.45;;;26.50;99.90;;;;;;5126706;27;20027;-52
2022/10/25 12:12:19;;;;;;;6.50;5.45;;;26.10;99.90;;;;;;5127299;27;20027;-47
2022/10/25 12:14:58;;;;;;;6.45;5.28;;;26.30;99.90;;;;;;5110324;28;20088;-48
2022/10/25 12:17:28;;;;;;;6.55;4.70;;;26.30;99.90;;;;;;5124652;28;20429;-48
2022/10/25 12:19:57;;;;;;;7.43;5.03;;;26.30;99.90;;;;;;5111375;28;20039;-48
2022/10/25 12:22:35;;;;;;;8.55;5.50;;;26.40;99.90;;;;;;5128293;28;20028;-48
2022/10/25 12:25:32;;;;;;;21.48;6.80;;;26.00;99.90;;;;;;5125860;28;20030;-47
2022/10/25 12:28:13;;;;;;;7.45;4.75;;;26.40;99.90;;;;;;5122951;28;20043;-52
2022/10/25 12:30:40;;;;;;;7.00;4.53;;;25.80;99.90;;;;;;5127917;28;20394;-53
2022/10/25 12:33:32;;;;;;;6.57;4.20;;;25.50;99.90;;;;;;5127121;28;20313;-53
2022/10/25 12:36:03;;;;;;;6.93;4.35;;;25.60;99.90;;;;;;5126822;28;20040;-53
2022/10/25 12:38:37;;;;;;;8.95;3.78;;;25.70;99.90;;;;;;5126537;28;20024;-49
2022/10/25 12:41:05;;;;;;;5.60;2.95;;;25.50;99.90;;;;;;5121164;27;20094;-47
2022/10/25 12:43:44;;;;;;;4.82;3.08;;;25.20;99.90;;;;;;5124882;28;20031;-46
2022/10/25 12:46:33;;;;;;;6.45;2.88;;;25.60;99.90;;;;;;5109137;28;20164;-47
2022/10/25 12:49:40;;;;;;;4.55;3.00;;;25.70;99.90;;;;;;5086405;28;20498;-47
2022/10/25 12:52:24;;;;;;;5.68;2.72;;;25.50;99.90;;;;;;5086326;28;20032;-48
2022/10/25 12:55:09;;;;;;;5.32;3.00;;;25.50;99.90;;;;;;5079984;28;20036;-49
2022/10/25 12:57:41;;;;;;;4.18;2.90;;;25.50;99.90;;;;;;5069872;28;20093;-48
2022/10/25 13:00:14;;;;;;;;;;;25.80;99.90;;;;;;5085201;28;20052;-47
2022/10/25 13:03:08;;;;;;;4.78;2.38;;;26.20;99.60;;;;;;5032780;28;20370;-49
2022/10/25 13:06:07;;;;;;;5.15;2.78;;;25.90;99.90;;;;;;5029188;28;20030;-51
2022/10/25 13:08:33;;;;;;;5.78;4.32;;;25.70;99.90;;;;;;5026673;28;20033;-53
2022/10/25 13:11:02;;;;;;;307.05;144.38;;;26.10;99.80;;;;;;5030572;28;20049;-52
2022/10/25 13:13:32;;;;;;;25.70;13.90;;;26.10;99.60;;;;;;5032666;28;20508;-52
2022/10/25 13:16:01;;;;;;;121.35;51.83;;;26.00;99.30;;;;;;5032028;28;20025;-52